sensor_id;sensor_type;location;lat;lon;timestamp;P1;durP1;ratioP1;P2;durP2;ratioP2
14760;SDS011;7472;45.396;5.272;2022-12-20T00:01:14;3.50;;;2.00;;
14760;SDS011;7472;45.396;5.272;2022-12-20T00:03:41;3.50;;;1.90;;
14760;SDS011;7472;45.396;5.272;2022-12-20T00:06:09;2.45;;;2.10;;
14760;SDS011;7472;45.396;5.272;2022-12-20T00:08:36;2.42;;;1.83;;
14760;SDS011;7472;45.396;5.272;2022-12-20T00:11:06;2.08;;;1.70;;
14760;SDS011;7472;45.396;5.272;2022-12-20T00:13:34;4.15;;;2.08;;
14760;SDS011;7472;45.396;5.272;2022-12-20T00:16:06;4.18;;;1.90;;
14760;SDS011;7472;45.396;5.272;2022-12-20T00:18:33;4.75;;;2.00;;
14760;SDS011;7472;45.396;5.272;2022-12-20T00:21:01;6.70;;;2.00;;
14760;SDS011;7472;45.396;5.272;2022-12-20T00:23:29;3.08;;;1.90;;
14760;SDS011;7472;45.396;5.272;2022-12-20T00:26:00;4.60;;;2.05;;
14760;SDS011;7472;45.396;5.272;2022-12-20T00:28:29;4.80;;;2.00;;
14760;SDS011;7472;45.396;5.272;2022-12-20T00:30:57;3.10;;;1.83;;
14760;SDS011;7472;45.396;5.272;2022-12-20T00:33:24;1.98;;;1.65;;
14760;SDS011;7472;45.396;5.272;2022-12-20T00:35:53;2.65;;;1.80;;
14760;SDS011;7472;45.396;5.272;2022-12-20T00:38:21;2.70;;;2.00;;
14760;SDS011;7472;45.396;5.272;2022-12-20T00:40:57;3.92;;;1.73;;
14760;SDS011;7472;45.396;5.272;2022-12-20T00:43:25;2.42;;;1.60;;
14760;SDS011;7472;45.396;5.272;2022-12-20T00:45:54;4.45;;;1.80;;
14760;SDS011;7472;45.396;5.272;2022-12-20T00:48:21;3.38;;;1.60;;
14760;SDS011;7472;45.396;5.272;2022-12-20T00:50:49;2.70;;;1.48;;
14760;SDS011;7472;45.396;5.272;2022-12-20T00:53:17;2.97;;;2.00;;
14760;SDS011;7472;45.396;5.272;2022-12-20T00:55:44;4.10;;;1.92;;
14760;SDS011;7472;45.396;5.272;2022-12-20T00:58:12;4.70;;;2.10;;
14760;SDS011;7472;45.396;5.272;2022-12-20T01:00:39;3.60;;;1.63;;
14760;SDS011;7472;45.396;5.272;2022-12-20T01:03:08;3.72;;;2.22;;
14760;SDS011;7472;45.396;5.272;2022-12-20T01:05:36;2.78;;;1.50;;
14760;SDS011;7472;45.396;5.272;2022-12-20T01:08:03;4.50;;;1.77;;
14760;SDS011;7472;45.396;5.272;2022-12-20T01:10:31;2.90;;;1.92;;
14760;SDS011;7472;45.396;5.272;2022-12-20T01:12:59;3.78;;;1.83;;
14760;SDS011;7472;45.396;5.272;2022-12-20T01:15:26;4.03;;;1.80;;
14760;SDS011;7472;45.396;5.272;2022-12-20T01:17:54;6.50;;;2.17;;
14760;SDS011;7472;45.396;5.272;2022-12-20T01:20:23;3.00;;;2.10;;
14760;SDS011;7472;45.396;5.272;2022-12-20T01:22:50;2.60;;;1.95;;
14760;SDS011;7472;45.396;5.272;2022-12-20T01:25:18;3.33;;;1.73;;
14760;SDS011;7472;45.396;5.272;2022-12-20T01:27:45;2.50;;;2.03;;
14760;SDS011;7472;45.396;5.272;2022-12-20T01:30:13;2.47;;;2.28;;
14760;SDS011;7472;45.396;5.272;2022-12-20T01:32:40;3.42;;;1.90;;
14760;SDS011;7472;45.396;5.272;2022-12-20T01:35:08;5.10;;;2.53;;
14760;SDS011;7472;45.396;5.272;2022-12-20T01:37:36;4.20;;;2.03;;
14760;SDS011;7472;45.396;5.272;2022-12-20T01:40:04;1.70;;;1.50;;
14760;SDS011;7472;45.396;5.272;2022-12-20T01:42:34;3.75;;;2.00;;
14760;SDS011;7472;45.396;5.272;2022-12-20T01:45:02;2.03;;;1.75;;
14760;SDS011;7472;45.396;5.272;2022-12-20T01:47:31;2.35;;;1.77;;
14760;SDS011;7472;45.396;5.272;2022-12-20T01:50:00;2.58;;;1.90;;
14760;SDS011;7472;45.396;5.272;2022-12-20T01:52:30;4.93;;;1.80;;
14760;SDS011;7472;45.396;5.272;2022-12-20T01:55:02;5.65;;;1.90;;
14760;SDS011;7472;45.396;5.272;2022-12-20T01:57:30;2.28;;;1.48;;
14760;SDS011;7472;45.396;5.272;2022-12-20T01:59:59;2.60;;;1.70;;
14760;SDS011;7472;45.396;5.272;2022-12-20T02:02:26;3.85;;;1.52;;
14760;SDS011;7472;45.396;5.272;2022-12-20T02:04:54;2.88;;;1.65;;
14760;SDS011;7472;45.396;5.272;2022-12-20T02:07:22;3.70;;;1.95;;
14760;SDS011;7472;45.396;5.272;2022-12-20T02:09:50;4.95;;;1.58;;
14760;SDS011;7472;45.396;5.272;2022-12-20T02:12:20;2.53;;;1.50;;
14760;SDS011;7472;45.396;5.272;2022-12-20T02:14:54;2.80;;;1.50;;
14760;SDS011;7472;45.396;5.272;2022-12-20T02:17:27;2.15;;;1.50;;
14760;SDS011;7472;45.396;5.272;2022-12-20T02:20:11;2.65;;;1.85;;
14760;SDS011;7472;45.396;5.272;2022-12-20T02:22:45;2.33;;;1.17;;
14760;SDS011;7472;45.396;5.272;2022-12-20T02:28:08;2.55;;;1.52;;
14760;SDS011;7472;45.396;5.272;2022-12-20T02:30:44;1.83;;;1.25;;
14760;SDS011;7472;45.396;5.272;2022-12-20T02:33:12;2.92;;;1.25;;
14760;SDS011;7472;45.396;5.272;2022-12-20T02:35:40;2.20;;;1.10;;
14760;SDS011;7472;45.396;5.272;2022-12-20T02:38:24;1.83;;;1.20;;
14760;SDS011;7472;45.396;5.272;2022-12-20T02:40:52;1.63;;;1.10;;
14760;SDS011;7472;45.396;5.272;2022-12-20T02:43:21;3.28;;;1.25;;
14760;SDS011;7472;45.396;5.272;2022-12-20T02:46:07;3.20;;;1.08;;
14760;SDS011;7472;45.396;5.272;2022-12-20T02:48:36;3.50;;;1.27;;
14760;SDS011;7472;45.396;5.272;2022-12-20T02:51:03;4.00;;;1.25;;
14760;SDS011;7472;45.396;5.272;2022-12-20T02:53:32;1.75;;;1.25;;
14760;SDS011;7472;45.396;5.272;2022-12-20T02:56:00;5.13;;;1.48;;
14760;SDS011;7472;45.396;5.272;2022-12-20T02:58:32;1.95;;;1.10;;
14760;SDS011;7472;45.396;5.272;2022-12-20T03:01:01;1.77;;;1.40;;
14760;SDS011;7472;45.396;5.272;2022-12-20T03:03:31;2.00;;;1.00;;
14760;SDS011;7472;45.396;5.272;2022-12-20T03:05:59;3.67;;;1.05;;
14760;SDS011;7472;45.396;5.272;2022-12-20T03:08:27;4.28;;;1.40;;
14760;SDS011;7472;45.396;5.272;2022-12-20T03:10:54;6.38;;;1.80;;
14760;SDS011;7472;45.396;5.272;2022-12-20T03:13:22;2.25;;;1.00;;
14760;SDS011;7472;45.396;5.272;2022-12-20T03:15:50;2.50;;;1.10;;
14760;SDS011;7472;45.396;5.272;2022-12-20T03:18:17;4.28;;;1.20;;
14760;SDS011;7472;45.396;5.272;2022-12-20T03:20:46;5.25;;;1.48;;
14760;SDS011;7472;45.396;5.272;2022-12-20T03:23:14;3.47;;;1.30;;
14760;SDS011;7472;45.396;5.272;2022-12-20T03:25:41;1.08;;;0.93;;
14760;SDS011;7472;45.396;5.272;2022-12-20T03:28:08;2.08;;;1.00;;
14760;SDS011;7472;45.396;5.272;2022-12-20T03:30:36;3.45;;;1.50;;
14760;SDS011;7472;45.396;5.272;2022-12-20T03:33:03;1.55;;;1.00;;
14760;SDS011;7472;45.396;5.272;2022-12-20T03:35:31;2.25;;;1.30;;
14760;SDS011;7472;45.396;5.272;2022-12-20T03:37:59;2.03;;;1.00;;
14760;SDS011;7472;45.396;5.272;2022-12-20T03:40:27;1.67;;;1.17;;
14760;SDS011;7472;45.396;5.272;2022-12-20T03:42:54;2.10;;;0.90;;
14760;SDS011;7472;45.396;5.272;2022-12-20T03:45:22;4.53;;;1.23;;
14760;SDS011;7472;45.396;5.272;2022-12-20T03:47:49;3.17;;;0.90;;
14760;SDS011;7472;45.396;5.272;2022-12-20T03:50:16;2.38;;;1.02;;
14760;SDS011;7472;45.396;5.272;2022-12-20T03:52:44;2.83;;;1.10;;
14760;SDS011;7472;45.396;5.272;2022-12-20T03:55:13;1.52;;;1.10;;
14760;SDS011;7472;45.396;5.272;2022-12-20T03:57:40;2.42;;;1.35;;
14760;SDS011;7472;45.396;5.272;2022-12-20T04:00:08;2.88;;;1.00;;
14760;SDS011;7472;45.396;5.272;2022-12-20T04:02:36;4.80;;;1.00;;
14760;SDS011;7472;45.396;5.272;2022-12-20T04:05:04;2.97;;;1.33;;
14760;SDS011;7472;45.396;5.272;2022-12-20T04:07:31;2.88;;;1.10;;
14760;SDS011;7472;45.396;5.272;2022-12-20T04:09:59;4.45;;;1.38;;
14760;SDS011;7472;45.396;5.272;2022-12-20T04:12:28;1.58;;;0.93;;
14760;SDS011;7472;45.396;5.272;2022-12-20T04:14:55;2.22;;;1.48;;
14760;SDS011;7472;45.396;5.272;2022-12-20T04:17:22;1.77;;;1.17;;
14760;SDS011;7472;45.396;5.272;2022-12-20T04:19:50;2.88;;;0.80;;
14760;SDS011;7472;45.396;5.272;2022-12-20T04:22:17;2.10;;;1.20;;
14760;SDS011;7472;45.396;5.272;2022-12-20T04:24:45;3.22;;;1.00;;
14760;SDS011;7472;45.396;5.272;2022-12-20T04:27:13;3.13;;;1.20;;
14760;SDS011;7472;45.396;5.272;2022-12-20T04:29:42;1.05;;;0.95;;
14760;SDS011;7472;45.396;5.272;2022-12-20T04:32:09;2.30;;;1.40;;
14760;SDS011;7472;45.396;5.272;2022-12-20T04:34:36;2.65;;;0.80;;
14760;SDS011;7472;45.396;5.272;2022-12-20T04:37:04;1.90;;;1.70;;
14760;SDS011;7472;45.396;5.272;2022-12-20T04:39:31;1.80;;;1.40;;
14760;SDS011;7472;45.396;5.272;2022-12-20T04:41:59;1.67;;;1.08;;
14760;SDS011;7472;45.396;5.272;2022-12-20T04:44:26;2.05;;;1.23;;
14760;SDS011;7472;45.396;5.272;2022-12-20T04:46:55;2.65;;;1.30;;
14760;SDS011;7472;45.396;5.272;2022-12-20T04:49:22;1.45;;;1.08;;
14760;SDS011;7472;45.396;5.272;2022-12-20T04:51:50;2.28;;;1.15;;
14760;SDS011;7472;45.396;5.272;2022-12-20T04:54:17;4.50;;;1.40;;
14760;SDS011;7472;45.396;5.272;2022-12-20T04:56:44;4.20;;;1.25;;
14760;SDS011;7472;45.396;5.272;2022-12-20T04:59:11;2.92;;;1.30;;
14760;SDS011;7472;45.396;5.272;2022-12-20T05:01:38;1.80;;;1.20;;
14760;SDS011;7472;45.396;5.272;2022-12-20T05:04:07;3.45;;;1.17;;
14760;SDS011;7472;45.396;5.272;2022-12-20T05:06:35;1.80;;;1.38;;
14760;SDS011;7472;45.396;5.272;2022-12-20T05:09:02;4.30;;;1.30;;
14760;SDS011;7472;45.396;5.272;2022-12-20T05:11:30;4.47;;;1.42;;
14760;SDS011;7472;45.396;5.272;2022-12-20T05:13:57;4.05;;;1.60;;
14760;SDS011;7472;45.396;5.272;2022-12-20T05:16:24;1.65;;;1.30;;
14760;SDS011;7472;45.396;5.272;2022-12-20T05:18:52;1.20;;;1.10;;
14760;SDS011;7472;45.396;5.272;2022-12-20T05:21:21;2.80;;;1.30;;
14760;SDS011;7472;45.396;5.272;2022-12-20T05:24:07;3.85;;;1.23;;
14760;SDS011;7472;45.396;5.272;2022-12-20T05:26:52;4.00;;;1.48;;
14760;SDS011;7472;45.396;5.272;2022-12-20T05:29:20;2.03;;;1.33;;
14760;SDS011;7472;45.396;5.272;2022-12-20T05:31:47;1.30;;;1.20;;
14760;SDS011;7472;45.396;5.272;2022-12-20T05:34:14;1.42;;;1.27;;
14760;SDS011;7472;45.396;5.272;2022-12-20T05:36:43;4.88;;;1.50;;
14760;SDS011;7472;45.396;5.272;2022-12-20T05:39:11;3.65;;;1.10;;
14760;SDS011;7472;45.396;5.272;2022-12-20T05:41:38;4.20;;;1.50;;
14760;SDS011;7472;45.396;5.272;2022-12-20T05:44:06;2.13;;;0.90;;
14760;SDS011;7472;45.396;5.272;2022-12-20T05:46:33;2.25;;;1.13;;
14760;SDS011;7472;45.396;5.272;2022-12-20T05:49:01;1.40;;;1.30;;
14760;SDS011;7472;45.396;5.272;2022-12-20T05:51:28;1.20;;;1.08;;
14760;SDS011;7472;45.396;5.272;2022-12-20T05:53:57;1.30;;;0.88;;
14760;SDS011;7472;45.396;5.272;2022-12-20T05:56:25;3.05;;;1.05;;
14760;SDS011;7472;45.396;5.272;2022-12-20T05:58:52;5.20;;;1.50;;
14760;SDS011;7472;45.396;5.272;2022-12-20T06:01:20;2.65;;;0.93;;
14760;SDS011;7472;45.396;5.272;2022-12-20T06:03:47;1.27;;;0.80;;
14760;SDS011;7472;45.396;5.272;2022-12-20T06:06:15;1.30;;;1.00;;
14760;SDS011;7472;45.396;5.272;2022-12-20T06:08:43;2.05;;;1.20;;
14760;SDS011;7472;45.396;5.272;2022-12-20T06:11:11;1.25;;;0.95;;
14760;SDS011;7472;45.396;5.272;2022-12-20T06:13:39;3.47;;;1.00;;
14760;SDS011;7472;45.396;5.272;2022-12-20T06:16:06;2.00;;;0.70;;
14760;SDS011;7472;45.396;5.272;2022-12-20T06:18:34;3.00;;;1.08;;
14760;SDS011;7472;45.396;5.272;2022-12-20T06:21:01;0.98;;;0.75;;
14760;SDS011;7472;45.396;5.272;2022-12-20T06:23:29;2.15;;;0.90;;
14760;SDS011;7472;45.396;5.272;2022-12-20T06:25:56;2.10;;;1.30;;
14760;SDS011;7472;45.396;5.272;2022-12-20T06:28:25;1.88;;;0.63;;
14760;SDS011;7472;45.396;5.272;2022-12-20T06:30:53;3.30;;;1.00;;
14760;SDS011;7472;45.396;5.272;2022-12-20T06:33:21;2.78;;;0.95;;
14760;SDS011;7472;45.396;5.272;2022-12-20T06:35:48;1.98;;;1.23;;
14760;SDS011;7472;45.396;5.272;2022-12-20T06:38:16;2.38;;;2.17;;
14760;SDS011;7472;45.396;5.272;2022-12-20T06:40:43;2.35;;;1.50;;
14760;SDS011;7472;45.396;5.272;2022-12-20T06:43:10;2.08;;;1.25;;
14760;SDS011;7472;45.396;5.272;2022-12-20T06:45:39;1.42;;;0.98;;
14760;SDS011;7472;45.396;5.272;2022-12-20T06:48:07;4.05;;;1.30;;
14760;SDS011;7472;45.396;5.272;2022-12-20T06:50:34;1.58;;;0.90;;
14760;SDS011;7472;45.396;5.272;2022-12-20T06:53:01;3.60;;;1.05;;
14760;SDS011;7472;45.396;5.272;2022-12-20T06:55:29;2.50;;;1.35;;
14760;SDS011;7472;45.396;5.272;2022-12-20T06:57:56;2.50;;;1.42;;
14760;SDS011;7472;45.396;5.272;2022-12-20T07:00:24;1.38;;;1.02;;
14760;SDS011;7472;45.396;5.272;2022-12-20T07:02:52;2.78;;;1.23;;
14760;SDS011;7472;45.396;5.272;2022-12-20T07:05:20;3.63;;;1.17;;
14760;SDS011;7472;45.396;5.272;2022-12-20T07:07:48;2.13;;;0.95;;
14760;SDS011;7472;45.396;5.272;2022-12-20T07:10:15;3.92;;;1.40;;
14760;SDS011;7472;45.396;5.272;2022-12-20T07:12:43;3.03;;;1.70;;
14760;SDS011;7472;45.396;5.272;2022-12-20T07:15:10;2.22;;;1.20;;
14760;SDS011;7472;45.396;5.272;2022-12-20T07:17:37;4.78;;;1.42;;
14760;SDS011;7472;45.396;5.272;2022-12-20T07:20:07;1.95;;;1.20;;
14760;SDS011;7472;45.396;5.272;2022-12-20T07:22:34;2.83;;;1.58;;
14760;SDS011;7472;45.396;5.272;2022-12-20T07:25:02;1.77;;;1.10;;
14760;SDS011;7472;45.396;5.272;2022-12-20T07:27:29;3.20;;;1.25;;
14760;SDS011;7472;45.396;5.272;2022-12-20T07:29:57;1.50;;;1.17;;
14760;SDS011;7472;45.396;5.272;2022-12-20T07:32:24;2.17;;;1.27;;
14760;SDS011;7472;45.396;5.272;2022-12-20T07:34:52;2.53;;;1.20;;
14760;SDS011;7472;45.396;5.272;2022-12-20T07:37:20;2.35;;;1.52;;
14760;SDS011;7472;45.396;5.272;2022-12-20T07:39:48;2.55;;;1.00;;
14760;SDS011;7472;45.396;5.272;2022-12-20T07:42:15;1.83;;;0.90;;
14760;SDS011;7472;45.396;5.272;2022-12-20T07:44:43;1.60;;;1.10;;
14760;SDS011;7472;45.396;5.272;2022-12-20T07:47:11;4.38;;;0.90;;
14760;SDS011;7472;45.396;5.272;2022-12-20T07:49:39;1.35;;;1.10;;
14760;SDS011;7472;45.396;5.272;2022-12-20T07:52:06;3.92;;;1.15;;
14760;SDS011;7472;45.396;5.272;2022-12-20T07:54:37;4.90;;;1.27;;
14760;SDS011;7472;45.396;5.272;2022-12-20T07:57:08;2.15;;;1.23;;
14760;SDS011;7472;45.396;5.272;2022-12-20T07:59:39;4.40;;;1.40;;
14760;SDS011;7472;45.396;5.272;2022-12-20T08:02:06;4.32;;;1.13;;
14760;SDS011;7472;45.396;5.272;2022-12-20T08:04:36;3.00;;;1.20;;
14760;SDS011;7472;45.396;5.272;2022-12-20T08:07:05;3.13;;;1.13;;
14760;SDS011;7472;45.396;5.272;2022-12-20T08:09:34;4.65;;;2.03;;
14760;SDS011;7472;45.396;5.272;2022-12-20T08:12:04;3.60;;;1.70;;
14760;SDS011;7472;45.396;5.272;2022-12-20T08:14:32;1.70;;;1.25;;
14760;SDS011;7472;45.396;5.272;2022-12-20T08:16:59;9.02;;;5.72;;
14760;SDS011;7472;45.396;5.272;2022-12-20T08:19:26;1.23;;;1.10;;
14760;SDS011;7472;45.396;5.272;2022-12-20T08:21:54;59.85;;;28.65;;
14760;SDS011;7472;45.396;5.272;2022-12-20T08:24:21;54.28;;;30.25;;
14760;SDS011;7472;45.396;5.272;2022-12-20T08:26:49;21.20;;;14.55;;
14760;SDS011;7472;45.396;5.272;2022-12-20T08:29:18;5.40;;;4.65;;
14760;SDS011;7472;45.396;5.272;2022-12-20T08:31:45;2.90;;;2.35;;
14760;SDS011;7472;45.396;5.272;2022-12-20T08:34:13;4.43;;;1.63;;
14760;SDS011;7472;45.396;5.272;2022-12-20T08:36:40;4.75;;;1.73;;
14760;SDS011;7472;45.396;5.272;2022-12-20T08:39:07;4.57;;;1.90;;
14760;SDS011;7472;45.396;5.272;2022-12-20T08:41:35;3.83;;;1.25;;
14760;SDS011;7472;45.396;5.272;2022-12-20T08:44:03;5.50;;;1.75;;
14760;SDS011;7472;45.396;5.272;2022-12-20T08:46:32;5.47;;;1.30;;
14760;SDS011;7472;45.396;5.272;2022-12-20T08:49:01;2.67;;;1.10;;
14760;SDS011;7472;45.396;5.272;2022-12-20T08:51:28;2.47;;;1.40;;
14760;SDS011;7472;45.396;5.272;2022-12-20T08:53:56;3.20;;;1.38;;
14760;SDS011;7472;45.396;5.272;2022-12-20T08:56:23;3.17;;;1.50;;
14760;SDS011;7472;45.396;5.272;2022-12-20T08:58:51;3.42;;;1.10;;
14760;SDS011;7472;45.396;5.272;2022-12-20T09:01:19;4.15;;;1.15;;
14760;SDS011;7472;45.396;5.272;2022-12-20T09:03:49;1.63;;;1.25;;
14760;SDS011;7472;45.396;5.272;2022-12-20T09:06:17;1.58;;;1.00;;
14760;SDS011;7472;45.396;5.272;2022-12-20T09:08:46;1.70;;;1.08;;
14760;SDS011;7472;45.396;5.272;2022-12-20T09:11:14;2.08;;;1.10;;
14760;SDS011;7472;45.396;5.272;2022-12-20T09:13:43;2.58;;;1.55;;
14760;SDS011;7472;45.396;5.272;2022-12-20T09:16:11;2.42;;;1.63;;
14760;SDS011;7472;45.396;5.272;2022-12-20T09:18:39;5.25;;;1.38;;
14760;SDS011;7472;45.396;5.272;2022-12-20T09:21:08;5.63;;;2.10;;
14760;SDS011;7472;45.396;5.272;2022-12-20T09:23:36;2.75;;;1.50;;
14760;SDS011;7472;45.396;5.272;2022-12-20T09:26:04;2.40;;;1.60;;
14760;SDS011;7472;45.396;5.272;2022-12-20T09:28:32;3.63;;;2.10;;
14760;SDS011;7472;45.396;5.272;2022-12-20T09:31:00;2.08;;;1.83;;
14760;SDS011;7472;45.396;5.272;2022-12-20T09:33:28;2.05;;;1.45;;
14760;SDS011;7472;45.396;5.272;2022-12-20T09:35:56;1.98;;;1.52;;
14760;SDS011;7472;45.396;5.272;2022-12-20T09:38:25;2.72;;;1.55;;
14760;SDS011;7472;45.396;5.272;2022-12-20T09:40:54;5.45;;;2.00;;
14760;SDS011;7472;45.396;5.272;2022-12-20T09:43:22;3.47;;;1.52;;
14760;SDS011;7472;45.396;5.272;2022-12-20T09:45:50;2.88;;;1.30;;
14760;SDS011;7472;45.396;5.272;2022-12-20T09:48:19;1.77;;;1.02;;
14760;SDS011;7472;45.396;5.272;2022-12-20T09:50:49;6.55;;;2.25;;
14760;SDS011;7472;45.396;5.272;2022-12-20T09:53:21;1.33;;;1.08;;
14760;SDS011;7472;45.396;5.272;2022-12-20T09:55:55;2.50;;;1.10;;
14760;SDS011;7472;45.396;5.272;2022-12-20T09:58:28;2.47;;;1.15;;
14760;SDS011;7472;45.396;5.272;2022-12-20T10:01:04;1.90;;;0.88;;
14760;SDS011;7472;45.396;5.272;2022-12-20T10:03:37;9.35;;;5.55;;
14760;SDS011;7472;45.396;5.272;2022-12-20T10:06:05;11.40;;;6.70;;
14760;SDS011;7472;45.396;5.272;2022-12-20T10:08:37;4.07;;;1.20;;
14760;SDS011;7472;45.396;5.272;2022-12-20T10:11:08;2.30;;;1.25;;
14760;SDS011;7472;45.396;5.272;2022-12-20T10:13:44;1.80;;;1.27;;
14760;SDS011;7472;45.396;5.272;2022-12-20T10:16:18;3.17;;;1.13;;
14760;SDS011;7472;45.396;5.272;2022-12-20T10:18:53;3.15;;;1.73;;
14760;SDS011;7472;45.396;5.272;2022-12-20T10:21:26;2.67;;;1.80;;
14760;SDS011;7472;45.396;5.272;2022-12-20T10:24:01;7.70;;;2.22;;
14760;SDS011;7472;45.396;5.272;2022-12-20T10:26:30;2.88;;;2.08;;
14760;SDS011;7472;45.396;5.272;2022-12-20T10:28:59;2.90;;;1.50;;
14760;SDS011;7472;45.396;5.272;2022-12-20T10:31:26;2.42;;;1.40;;
14760;SDS011;7472;45.396;5.272;2022-12-20T10:33:54;1.92;;;1.27;;
14760;SDS011;7472;45.396;5.272;2022-12-20T10:36:25;2.05;;;1.30;;
14760;SDS011;7472;45.396;5.272;2022-12-20T10:38:53;2.28;;;1.27;;
14760;SDS011;7472;45.396;5.272;2022-12-20T10:41:22;2.22;;;1.00;;
14760;SDS011;7472;45.396;5.272;2022-12-20T10:43:52;2.10;;;1.10;;
14760;SDS011;7472;45.396;5.272;2022-12-20T10:46:21;2.00;;;1.40;;
14760;SDS011;7472;45.396;5.272;2022-12-20T10:48:49;2.05;;;1.20;;
14760;SDS011;7472;45.396;5.272;2022-12-20T10:51:17;6.47;;;4.85;;
14760;SDS011;7472;45.396;5.272;2022-12-20T10:53:49;3.50;;;1.73;;
14760;SDS011;7472;45.396;5.272;2022-12-20T10:56:17;4.57;;;2.10;;
14760;SDS011;7472;45.396;5.272;2022-12-20T10:58:52;1.70;;;1.20;;
14760;SDS011;7472;45.396;5.272;2022-12-20T11:01:20;3.15;;;1.85;;
14760;SDS011;7472;45.396;5.272;2022-12-20T11:03:49;6.00;;;1.10;;
14760;SDS011;7472;45.396;5.272;2022-12-20T11:06:17;8.05;;;1.90;;
14760;SDS011;7472;45.396;5.272;2022-12-20T11:08:45;3.40;;;1.13;;
14760;SDS011;7472;45.396;5.272;2022-12-20T11:11:14;3.20;;;1.10;;
14760;SDS011;7472;45.396;5.272;2022-12-20T11:13:42;3.38;;;1.15;;
14760;SDS011;7472;45.396;5.272;2022-12-20T11:16:25;4.57;;;1.42;;
14760;SDS011;7472;45.396;5.272;2022-12-20T11:18:55;14.77;;;9.85;;
14760;SDS011;7472;45.396;5.272;2022-12-20T11:21:26;23.75;;;16.65;;
14760;SDS011;7472;45.396;5.272;2022-12-20T11:23:57;16.73;;;12.60;;
14760;SDS011;7472;45.396;5.272;2022-12-20T11:26:32;24.67;;;18.17;;
14760;SDS011;7472;45.396;5.272;2022-12-20T11:29:05;5.85;;;4.68;;
14760;SDS011;7472;45.396;5.272;2022-12-20T11:31:42;10.80;;;8.98;;
14760;SDS011;7472;45.396;5.272;2022-12-20T11:34:16;6.45;;;3.75;;
14760;SDS011;7472;45.396;5.272;2022-12-20T11:36:51;4.15;;;1.23;;
14760;SDS011;7472;45.396;5.272;2022-12-20T11:39:26;6.55;;;5.47;;
14760;SDS011;7472;45.396;5.272;2022-12-20T11:41:58;2.40;;;1.95;;
14760;SDS011;7472;45.396;5.272;2022-12-20T11:44:29;5.85;;;4.70;;
14760;SDS011;7472;45.396;5.272;2022-12-20T11:47:12;4.38;;;2.63;;
14760;SDS011;7472;45.396;5.272;2022-12-20T11:49:47;10.13;;;1.38;;
14760;SDS011;7472;45.396;5.272;2022-12-20T11:52:18;4.63;;;1.40;;
14760;SDS011;7472;45.396;5.272;2022-12-20T11:54:53;3.00;;;1.00;;
14760;SDS011;7472;45.396;5.272;2022-12-20T11:57:24;1.30;;;1.15;;
14760;SDS011;7472;45.396;5.272;2022-12-20T11:59:55;4.82;;;1.52;;
14760;SDS011;7472;45.396;5.272;2022-12-20T12:02:26;3.50;;;1.42;;
14760;SDS011;7472;45.396;5.272;2022-12-20T12:04:55;4.15;;;1.30;;
14760;SDS011;7472;45.396;5.272;2022-12-20T12:07:25;3.20;;;1.45;;
14760;SDS011;7472;45.396;5.272;2022-12-20T12:09:56;5.82;;;1.27;;
14760;SDS011;7472;45.396;5.272;2022-12-20T12:12:25;2.45;;;1.42;;
14760;SDS011;7472;45.396;5.272;2022-12-20T12:14:55;4.32;;;1.70;;
14760;SDS011;7472;45.396;5.272;2022-12-20T12:17:27;2.88;;;1.58;;
14760;SDS011;7472;45.396;5.272;2022-12-20T12:20:00;0.88;;;0.88;;
14760;SDS011;7472;45.396;5.272;2022-12-20T12:22:32;2.72;;;1.38;;
14760;SDS011;7472;45.396;5.272;2022-12-20T12:25:02;3.65;;;1.38;;
14760;SDS011;7472;45.396;5.272;2022-12-20T12:27:31;3.33;;;1.17;;
14760;SDS011;7472;45.396;5.272;2022-12-20T12:29:59;1.65;;;0.95;;
14760;SDS011;7472;45.396;5.272;2022-12-20T12:32:28;5.60;;;1.15;;
14760;SDS011;7472;45.396;5.272;2022-12-20T12:35:04;10.55;;;1.50;;
14760;SDS011;7472;45.396;5.272;2022-12-20T12:37:42;5.13;;;1.60;;
14760;SDS011;7472;45.396;5.272;2022-12-20T12:40:21;3.00;;;1.30;;
14760;SDS011;7472;45.396;5.272;2022-12-20T12:42:57;1.95;;;1.30;;
14760;SDS011;7472;45.396;5.272;2022-12-20T12:45:29;4.20;;;1.50;;
14760;SDS011;7472;45.396;5.272;2022-12-20T12:48:01;3.70;;;1.25;;
14760;SDS011;7472;45.396;5.272;2022-12-20T12:50:31;2.95;;;1.45;;
14760;SDS011;7472;45.396;5.272;2022-12-20T12:53:02;5.15;;;1.48;;
14760;SDS011;7472;45.396;5.272;2022-12-20T12:55:40;5.38;;;1.50;;
14760;SDS011;7472;45.396;5.272;2022-12-20T13:00:56;2.38;;;1.30;;
14760;SDS011;7472;45.396;5.272;2022-12-20T13:03:42;3.65;;;1.23;;
14760;SDS011;7472;45.396;5.272;2022-12-20T13:09:17;2.20;;;1.45;;
14760;SDS011;7472;45.396;5.272;2022-12-20T13:11:46;1.88;;;1.27;;
14760;SDS011;7472;45.396;5.272;2022-12-20T13:19:49;2.90;;;1.35;;
14760;SDS011;7472;45.396;5.272;2022-12-20T13:22:18;1.85;;;1.38;;
14760;SDS011;7472;45.396;5.272;2022-12-20T13:24:51;3.05;;;1.58;;
14760;SDS011;7472;45.396;5.272;2022-12-20T13:27:24;3.60;;;1.70;;
14760;SDS011;7472;45.396;5.272;2022-12-20T13:32:54;2.78;;;1.85;;
14760;SDS011;7472;45.396;5.272;2022-12-20T13:35:31;17.42;;;10.65;;
14760;SDS011;7472;45.396;5.272;2022-12-20T13:37:59;6.53;;;1.83;;
14760;SDS011;7472;45.396;5.272;2022-12-20T13:40:30;4.72;;;1.77;;
14760;SDS011;7472;45.396;5.272;2022-12-20T13:43:01;2.75;;;1.40;;
14760;SDS011;7472;45.396;5.272;2022-12-20T13:45:30;5.45;;;2.58;;
14760;SDS011;7472;45.396;5.272;2022-12-20T13:47:59;4.72;;;2.33;;
14760;SDS011;7472;45.396;5.272;2022-12-20T13:50:31;2.97;;;1.67;;
14760;SDS011;7472;45.396;5.272;2022-12-20T13:53:00;5.60;;;2.13;;
14760;SDS011;7472;45.396;5.272;2022-12-20T13:55:37;4.85;;;2.70;;
14760;SDS011;7472;45.396;5.272;2022-12-20T13:58:10;4.85;;;2.35;;
14760;SDS011;7472;45.396;5.272;2022-12-20T14:00:39;5.20;;;3.40;;
14760;SDS011;7472;45.396;5.272;2022-12-20T14:03:09;2.47;;;1.67;;
14760;SDS011;7472;45.396;5.272;2022-12-20T14:05:41;7.43;;;2.67;;
14760;SDS011;7472;45.396;5.272;2022-12-20T14:08:09;4.78;;;2.47;;
14760;SDS011;7472;45.396;5.272;2022-12-20T14:10:40;3.08;;;1.67;;
14760;SDS011;7472;45.396;5.272;2022-12-20T14:13:13;2.40;;;1.60;;
14760;SDS011;7472;45.396;5.272;2022-12-20T14:15:44;2.17;;;1.85;;
14760;SDS011;7472;45.396;5.272;2022-12-20T14:18:15;3.00;;;1.55;;
14760;SDS011;7472;45.396;5.272;2022-12-20T14:20:44;3.47;;;2.22;;
14760;SDS011;7472;45.396;5.272;2022-12-20T14:23:13;3.13;;;1.20;;
14760;SDS011;7472;45.396;5.272;2022-12-20T14:25:43;3.53;;;1.48;;
14760;SDS011;7472;45.396;5.272;2022-12-20T14:28:18;5.28;;;1.27;;
14760;SDS011;7472;45.396;5.272;2022-12-20T14:30:46;4.97;;;1.90;;
14760;SDS011;7472;45.396;5.272;2022-12-20T14:33:17;4.05;;;1.40;;
14760;SDS011;7472;45.396;5.272;2022-12-20T14:35:47;4.05;;;1.30;;
14760;SDS011;7472;45.396;5.272;2022-12-20T14:38:19;2.03;;;1.33;;
14760;SDS011;7472;45.396;5.272;2022-12-20T14:40:47;2.22;;;1.40;;
14760;SDS011;7472;45.396;5.272;2022-12-20T14:43:15;2.47;;;1.55;;
14760;SDS011;7472;45.396;5.272;2022-12-20T14:45:51;1.90;;;1.00;;
14760;SDS011;7472;45.396;5.272;2022-12-20T14:48:32;0.95;;;0.80;;
14760;SDS011;7472;45.396;5.272;2022-12-20T14:51:02;5.80;;;1.30;;
14760;SDS011;7472;45.396;5.272;2022-12-20T14:53:30;1.65;;;0.82;;
14760;SDS011;7472;45.396;5.272;2022-12-20T14:55:58;4.40;;;1.55;;
14760;SDS011;7472;45.396;5.272;2022-12-20T14:58:26;5.38;;;1.00;;
14760;SDS011;7472;45.396;5.272;2022-12-20T15:00:54;2.97;;;1.65;;
14760;SDS011;7472;45.396;5.272;2022-12-20T15:03:23;1.23;;;1.05;;
14760;SDS011;7472;45.396;5.272;2022-12-20T15:05:50;1.58;;;0.93;;
14760;SDS011;7472;45.396;5.272;2022-12-20T15:08:21;5.60;;;1.25;;
14760;SDS011;7472;45.396;5.272;2022-12-20T15:11:01;4.50;;;0.95;;
14760;SDS011;7472;45.396;5.272;2022-12-20T15:13:31;2.83;;;0.95;;
14760;SDS011;7472;45.396;5.272;2022-12-20T15:15:59;2.13;;;1.02;;
14760;SDS011;7472;45.396;5.272;2022-12-20T15:18:28;3.65;;;1.75;;
14760;SDS011;7472;45.396;5.272;2022-12-20T15:20:58;1.73;;;1.27;;
14760;SDS011;7472;45.396;5.272;2022-12-20T15:23:28;1.50;;;0.90;;
14760;SDS011;7472;45.396;5.272;2022-12-20T15:25:55;1.65;;;0.98;;
14760;SDS011;7472;45.396;5.272;2022-12-20T15:28:23;7.15;;;1.40;;
14760;SDS011;7472;45.396;5.272;2022-12-20T15:30:51;2.65;;;1.85;;